Ana Sayfa
METAR-TAF:

METAR-TAF

Havaalanları :

Upshur County Regional Airport

Buckhannon, Batı Virginia, Amerika Birleşik Devletleri

Enlem: 39-00N, Boylam: 080-16W, yükseklik: 498 m

Güncel hava durumu gözlemi

Rapor saat 22:55 UTC de 25 dakika önce yapıldı.
Rüzgar kuzeybatıdan 5 kt
Sıcaklık 29°C
Nem 66%
Basınç 1016 hPa
Görüş mesafesi: 16.1 km
Açık gökyüzü

METAR: KW22 182255Z AUTO 32005KT 10SM CLR 29/22 A2999 RMK AO2

Saat: 19:20 (23:20 UTC)


TAF: eksik

4.000'den fazla havaalanı için hava durumu gözlemleri ve tahminleri (METAR ve TAF raporları).

Kullanılabilir istasyonlar harita üzerinde sarı ve kırmızı noktalarla gösterilir.

İstasyonun adını görmek için fareyi noktanın üzerinde gezdirin.

Sonrasında hava gözlem ve tahminlerini görmek için tıklayın.

Haritayı değiştirmek için: yaklaştırmak için siyah artı işaretli yeşil düğmeye ve uzaklaştırmak için de eksi işaretli düğmeye hızla tıklayın; bitişik haritalar için yeşil okları kullanın.


METAR-TAF: